Latest Weather Observations for Townsville

IDQ60801

Issued at 11:35 am EST Wednesday 3 September 2014 (issued every 30 minutes, with the page automatically refreshed every 10 minutes)

About weather observations | Map of weather stations | Latest weather observations for QLD | Other Formats
Station Details ID: 032040 Name: TOWNSVILLE AERO Lat: -19.25 Lon: 146.77 Height: 4.34 m
Data from the previous 72 hours. | See also: Recent months at Townsville
Date/Time
EST
Temp
°C
App
Temp
°C
Dew
Point
Rel
Hum
%
Delta-T
°C
Wind Press
QNH
hPa
Press
MSL
hPa
Rain
since 9 am
mm
Dir
 
Spd
km/h
Gust
km/h
Spd
kts
Gust
kts
03/11:30am 25.6 18.0 -2.5 15 12.4 S 28 39 15 21 1016.1 - 0.0
03/11:00am 24.7 17.9 -1.5 17 11.7 SSW 24 33 13 18 1016.5 - 0.0
03/10:30am 24.2 17.1 -1.0 19 11.3 SSW 26 33 14 18 1016.8 - 0.0
03/10:00am 23.5 16.4 -0.9 20 10.9 SSW 26 35 14 19 1017.0 - 0.0
03/09:30am 22.7 15.6 -1.0 20 10.5 SSW 26 33 14 18 1017.2 - 0.0
03/09:00am 22.3 14.5 -0.6 21 10.2 SSW 30 37 16 20 1017.6 1017.6 0.0
03/08:30am 21.6 13.8 -0.9 22 9.9 SSW 30 39 16 21 1017.2 - 0.0
03/08:00am 21.0 13.0 0.6 25 9.2 SSW 32 39 17 21 1017.0 - 0.0
03/07:30am 20.3 13.4 0.3 26 8.9 SW 26 33 14 18 1016.8 - 0.0
03/07:00am 18.9 13.3 1.3 30 7.9 SW 20 24 11 13 1016.5 - 0.0
03/06:30am 17.6 11.9 4.8 42 6.1 SSW 24 28 13 15 1016.3 - 0.0
03/06:00am 17.8 12.0 6.2 46 5.7 SSW 26 30 14 16 1015.9 1015.9 0.0
03/05:30am 18.5 14.4 6.1 44 6.1 SW 17 19 9 10 1015.5 - 0.0
03/05:00am 15.4 16.0 13.1 86 1.3 SE 2 7 1 4 1015.2 - 0.0
03/04:30am 15.7 14.8 13.6 87 1.2 SSW 11 11 6 6 1014.8 - 0.0
03/04:00am 15.8 15.1 14.2 90 0.9 WSW 11 13 6 7 1014.8 - 0.0
03/03:30am 15.8 16.1 15.1 96 0.4 WSW 7 9 4 5 1014.9 - 0.0
03/03:00am 15.1 15.3 14.6 97 0.3 W 7 9 4 5 1014.9 1014.9 0.0
03/02:30am 14.4 13.9 13.9 97 0.3 WNW 9 11 5 6 1015.0 - 0.0
03/02:00am 15.8 17.5 15.3 97 0.3 CALM 0 11 0 6 1015.4 - 0.0
03/01:30am 15.6 17.2 14.9 96 0.4 CALM 0 2 0 1 1015.3 - 0.0
03/01:00am 16.4 18.2 15.4 94 0.6 CALM 0 0 0 0 1015.5 - 0.0
03/12:30am 17.6 19.5 15.7 89 1.1 CALM 0 0 0 0 1015.7 - 0.0
03/12:00am 17.0 18.8 15.5 91 0.9 CALM 0 0 0 0 1015.7 1015.7 0.0
 
Date/Time
EST
Temp
°C
App
Temp
°C
Dew
Point
Rel
Hum
%
Delta-T
°C
Wind Press
QNH
hPa
Press
MSL
hPa
Rain
since 9 am
mm
Dir
 
Spd
km/h
Gust
km/h
Spd
kts
Gust
kts
02/11:30pm 18.1 18.9 16.3 89 1.1 WSW 7 13 4 7 1015.6 - 0.0
02/11:00pm 17.7 19.9 16.4 92 0.8 CALM 0 0 0 0 1015.6 - 0.0
02/10:30pm 17.8 19.8 16.1 90 1.0 WSW 0 0 0 0 1015.7 - 0.0
02/10:00pm 18.6 20.8 16.4 87 1.3 CALM 0 0 0 0 1015.6 - 0.0
02/09:30pm 18.8 20.0 16.8 88 1.2 WSW 6 7 3 4 1015.5 - 0.0
02/09:00pm 18.5 19.5 16.3 87 1.3 WNW 6 11 3 6 1015.4 1015.4 0.0
02/08:30pm 18.8 20.5 16.3 85 1.5 N 2 7 1 4 1015.2 - 0.0
02/08:00pm 19.7 20.3 16.7 83 1.8 N 9 11 5 6 1015.0 - 0.0
02/07:30pm 20.0 20.7 17.0 83 1.8 N 9 13 5 7 1014.8 - 0.0
02/07:00pm 20.5 21.1 16.9 80 2.2 NNW 9 13 5 7 1014.3 - 0.0
02/06:30pm 21.4 20.8 16.6 74 2.9 N 15 19 8 10 1014.1 - 0.0
02/06:00pm 21.7 21.1 16.6 73 3.1 N 15 19 8 10 1014.0 1014.0 0.0
02/05:30pm 22.5 20.8 16.2 67 3.8 N 20 26 11 14 1014.0 - 0.0
02/05:00pm 23.6 21.6 14.9 58 5.2 N 19 26 10 14 1013.9 - 0.0
02/04:30pm 23.9 22.4 15.2 58 5.2 N 17 22 9 12 1014.0 - 0.0
02/04:00pm 24.4 22.4 14.0 52 6.1 N 17 22 9 12 1013.7 - 0.0
02/03:30pm 25.1 22.6 12.2 44 7.4 N 17 22 9 12 1013.5 - 0.0
02/03:00pm 26.8 24.5 11.8 39 8.6 NNE 15 19 8 10 1013.4 1013.4 0.0
02/02:30pm 26.8 24.3 11.1 37 8.9 NE 15 20 8 11 1013.8 - 0.0
02/02:00pm 26.8 21.4 6.3 27 10.7 ENE 24 28 13 15 1014.2 - 0.0
02/01:30pm 26.5 23.0 10.9 37 8.8 NE 20 26 11 14 1014.6 - 0.0
02/01:00pm 26.1 23.3 13.3 45 7.5 NE 20 26 11 14 1015.2 - 0.0
02/12:30pm 25.9 23.1 13.3 45 7.4 NE 20 26 11 14 1015.6 - 0.0
02/12:00pm 25.3 23.2 13.5 48 6.9 NE 17 24 9 13 1016.3 1016.3 0.0
02/11:30am 25.4 23.5 14.1 49 6.7 NE 17 22 9 12 1017.0 - 0.0
02/11:00am 25.0 24.2 14.0 50 6.5 NE 11 19 6 10 1017.5 - 0.0
02/10:30am 24.3 23.8 13.7 51 6.2 NW 9 15 5 8 1017.8 - 0.0
02/10:00am 24.4 23.4 13.4 50 6.4 NNW 11 19 6 10 1018.2 - 0.0
02/09:30am 23.0 22.3 13.1 53 5.7 NW 9 15 5 8 1018.7 - 0.0
02/09:00am 22.0 23.2 14.9 64 4.2 NW 2 9 1 5 1018.7 1018.7 0.0
02/08:30am 20.3 21.1 15.8 75 2.7 NW 6 7 3 4 1018.4 - 0.0
02/08:00am 18.2 19.2 15.3 83 1.7 WSW 4 7 2 4 1018.5 - 0.0
02/07:30am 16.2 17.6 14.3 88 1.1 CALM 0 0 0 0 1018.3 - 0.0
02/07:00am 14.1 15.0 13.0 93 0.6 CALM 0 0 0 0 1018.2 - 0.0
02/06:30am 14.0 14.6 13.1 94 0.5 SSW 2 7 1 4 1018.0 - 0.0
02/06:00am 13.8 14.7 12.9 94 0.5 CALM 0 0 0 0 1017.7 1017.7 0.0
02/05:30am 13.9 14.9 13.2 96 0.4 CALM 0 0 0 0 1017.5 - 0.0
02/05:00am 13.6 14.4 12.7 94 0.5 CALM 0 0 0 0 1017.1 - 0.0
02/04:30am 14.4 15.5 13.5 94 0.5 CALM 0 0 0 0 1017.1 - 0.0
02/04:00am 14.2 15.2 13.3 94 0.5 CALM 0 0 0 0 1017.2 - 0.0
02/03:30am 14.3 15.4 13.4 94 0.5 CALM 0 0 0 0 1017.1 - 0.0
02/03:00am 14.8 15.8 13.2 90 0.9 CALM 0 0 0 0 1017.5 1017.5 0.0
02/02:30am 14.9 15.9 13.3 90 0.9 CALM 0 0 0 0 1017.6 - 0.0
02/02:00am 14.9 14.9 13.5 91 0.8 SW 6 7 3 4 1017.8 - 0.0
02/01:30am 15.4 16.2 13.6 89 1.0 S 2 6 1 3 1017.9 - 0.0
02/01:00am 16.0 16.7 13.5 85 1.4 - 2 9 1 5 1018.1 - 0.0
02/12:30am 17.0 16.9 13.8 81 1.8 S 7 7 4 4 1018.2 - 0.0
02/12:00am 17.7 17.6 13.8 78 2.2 SSW 7 9 4 5 1018.2 1018.2 0.0
 
Date/Time
EST
Temp
°C
App
Temp
°C
Dew
Point
Rel
Hum
%
Delta-T
°C
Wind Press
QNH
hPa
Press
MSL
hPa
Rain
since 9 am
mm
Dir
 
Spd
km/h
Gust
km/h
Spd
kts
Gust
kts
01/11:30pm 16.8 18.2 14.5 86 1.3 CALM 0 0 0 0 1018.3 - 0.0
01/11:00pm 16.9 18.5 15.0 88 1.1 CALM 0 0 0 0 1018.2 - 0.0
01/10:30pm 17.2 18.8 14.8 86 1.4 CALM 0 0 0 0 1018.1 - 0.0
01/10:00pm 17.6 18.8 13.9 79 2.1 CALM 0 0 0 0 1018.0 - 0.0
01/09:30pm 17.4 18.6 13.9 80 2.0 CALM 0 0 0 0 1018.2 - 0.0
01/09:00pm 17.7 17.8 14.0 79 2.1 NNW 6 7 3 4 1018.2 1018.2 0.0
01/08:30pm 18.5 18.5 14.3 76 2.4 NNW 7 9 4 5 1018.0 - 0.0
01/08:00pm 19.1 18.8 14.4 74 2.7 N 9 9 5 5 1017.9 - 0.0
01/07:30pm 18.8 20.0 14.9 78 2.3 N 2 7 1 4 1017.4 - 0.0
01/07:00pm 20.2 20.0 14.7 70 3.2 NNE 9 13 5 7 1017.1 - 0.0
01/06:30pm 20.4 19.0 14.6 69 3.4 NE 15 19 8 10 1016.9 - 0.0
01/06:00pm 21.1 19.3 14.4 65 3.9 NE 17 19 9 10 1016.5 1016.5 0.0
01/05:30pm 22.0 20.0 14.9 64 4.2 NE 19 22 10 12 1016.2 - 0.0
01/05:00pm 22.8 20.5 14.7 60 4.8 NE 20 26 11 14 1016.0 - 0.0
01/04:30pm 23.4 20.7 13.0 52 6.0 ENE 19 22 10 12 1015.9 - 0.0
01/04:00pm 23.7 20.2 12.3 48 6.5 NE 22 28 12 15 1015.7 - 0.0
01/03:30pm 24.2 21.1 12.1 46 6.9 NE 20 26 11 14 1015.8 - 0.0
01/03:00pm 24.6 21.7 12.4 46 7.0 NE 19 26 10 14 1016.1 1016.1 0.0
01/02:30pm 24.4 21.2 11.9 45 7.1 NE 20 28 11 15 1016.2 - 0.0
01/02:00pm 24.3 21.4 12.2 46 6.9 ENE 19 24 10 13 1016.5 - 0.0
01/01:30pm 24.4 21.7 12.8 48 6.7 NE 19 26 10 14 1016.8 - 0.0
01/01:00pm 23.9 21.3 11.9 47 6.8 NE 17 26 9 14 1017.6 - 0.0
01/12:30pm 23.7 21.1 10.7 44 7.2 NE 15 20 8 11 1018.1 - 0.0
01/12:00pm 23.9 21.8 11.0 44 7.2 NE 13 19 7 10 1018.7 1018.7 0.0
01/11:30am 24.6 22.2 11.3 43 7.5 NE 15 24 8 13 1018.9 - 0.0
01/11:00am 24.0 21.5 10.9 43 7.3 ENE 15 26 8 14 1019.1 - 0.0
01/10:30am 23.7 21.5 10.7 44 7.2 ENE 13 19 7 10 1019.3 - 0.0
01/10:00am 23.8 21.8 11.5 46 6.9 NNE 13 20 7 11 1019.4 - 0.0
01/09:30am 23.0 21.3 12.5 51 6.0 SE 13 17 7 9 1019.4 - 0.0
01/09:00am 22.6 21.5 13.2 55 5.4 SE 11 17 6 9 1019.4 1019.4 0.0
01/08:30am 21.3 20.8 13.7 62 4.4 SSE 9 11 5 6 1019.2 - 0.0
01/08:00am 18.7 19.8 14.7 77 2.3 W 2 7 1 4 1018.7 - 0.0
01/07:30am 15.8 17.1 14.2 90 0.9 CALM 0 0 0 0 1018.4 - 0.0
01/07:00am 14.1 15.0 13.0 93 0.6 CALM 0 0 0 0 1018.0 - 0.0
01/06:30am 13.2 14.0 12.6 96 0.3 CALM 0 0 0 0 1017.7 - 0.0
01/06:00am 13.0 13.7 12.3 95 0.4 CALM 0 0 0 0 1017.3 1017.3 0.0
01/05:30am 13.6 14.4 12.7 94 0.5 CALM 0 0 0 0 1017.1 - 0.0
01/05:00am 13.5 14.4 12.8 95 0.4 CALM 0 0 0 0 1016.9 - 0.0
01/04:30am 13.2 13.9 12.3 94 0.5 CALM 0 0 0 0 1016.8 - 0.0
01/04:00am 14.2 15.1 12.9 92 0.7 CALM 0 0 0 0 1016.8 - 0.0
01/03:30am 14.1 14.9 12.6 91 0.8 CALM 0 0 0 0 1016.7 - 0.0
01/03:00am 14.3 13.8 12.8 91 0.8 WNW 7 9 4 5 1016.9 1016.9 0.0
01/02:30am 14.5 15.3 12.7 89 1.0 CALM 0 0 0 0 1016.9 - 0.0
01/02:00am 15.0 16.1 13.4 90 0.9 CALM 0 0 0 0 1017.2 - 0.0
01/01:30am 16.1 17.2 13.6 85 1.4 CALM 0 0 0 0 1017.5 - 0.0
01/01:00am 16.8 17.9 13.4 80 1.9 CALM 0 0 0 0 1017.7 - 0.0
01/12:30am 16.1 16.0 14.0 87 1.2 WSW 7 7 4 4 1018.0 - 0.0
01/12:00am 15.8 15.2 13.5 86 1.3 WSW 9 9 5 5 1018.0 1018.0 0.0
 
Date/Time
EST
Temp
°C
App
Temp
°C
Dew
Point
Rel
Hum
%
Delta-T
°C
Wind Press
QNH
hPa
Press
MSL
hPa
Rain
since 9 am
mm
Dir
 
Spd
km/h
Gust
km/h
Spd
kts
Gust
kts
31/11:30pm 15.8 17.0 13.8 88 1.1 CALM 0 0 0 0 1018.0 - 0.0
31/11:00pm 17.2 16.8 14.2 82 1.7 SSE 9 11 5 6 1018.0 - 0.0
31/10:30pm 18.4 17.9 14.8 79 2.1 SSE 11 13 6 7 1017.9 - 0.0
31/10:00pm 18.5 17.9 14.7 78 2.2 SE 11 13 6 7 1017.9 - 0.0
31/09:30pm 18.6 18.0 14.6 77 2.3 SE 11 13 6 7 1017.9 - 0.0
31/09:00pm 19.6 19.2 14.2 71 3.1 ESE 9 11 5 6 1017.8 1017.8 0.0
31/08:30pm 19.7 19.0 14.4 71 3.1 E 11 17 6 9 1017.6 - 0.0
31/08:00pm 20.0 18.2 14.5 70 3.2 E 17 22 9 12 1017.2 - 0.0
31/07:30pm 20.4 18.6 13.2 63 4.1 E 15 20 8 11 1017.0 - 0.0
31/07:00pm 20.2 18.2 12.6 61 4.3 ENE 15 19 8 10 1016.7 - 0.0
31/06:30pm 20.5 18.1 11.5 56 5.0 ENE 15 20 8 11 1016.2 - 0.0
31/06:00pm 21.2 18.0 10.1 49 6.0 ENE 17 26 9 14 1015.7 1015.7 0.0
31/05:30pm 22.3 17.8 8.5 41 7.3 E 22 32 12 17 1015.3 - 0.0
31/05:00pm 23.0 16.7 5.8 33 8.7 ENE 28 37 15 20 1015.1 - 0.0
31/04:30pm 23.6 17.3 5.6 31 9.1 ENE 28 35 15 19 1014.8 - 0.0
31/04:00pm 24.4 17.1 4.5 27 9.9 ENE 32 37 17 20 1014.6 - 0.0
31/03:30pm 24.8 18.2 4.0 26 10.3 ENE 28 35 15 19 1014.5 - 0.0
31/03:00pm 24.7 18.0 5.4 29 9.8 ENE 30 37 16 20 1014.6 1014.6 0.0
31/02:30pm 25.0 19.2 7.9 33 9.1 NE 28 33 15 18 1015.0 - 0.0
31/02:00pm 25.4 19.8 8.8 35 9.0 NE 28 33 15 18 1015.3 - 0.0
31/01:30pm 24.9 21.3 10.5 40 8.0 ENE 20 26 11 14 1015.8 - 0.0
31/01:00pm 24.6 20.4 9.6 38 8.2 NE 22 28 12 15 1016.1 - 0.0
31/12:30pm 24.4 20.9 11.0 43 7.5 NE 20 26 11 14 1016.6 - 0.0
31/12:00pm 24.0 20.9 11.6 45 7.0 NE 19 30 10 16 1017.1 1017.1 0.0

Other Formats:

Comma delimited format used in spreadsheet applications
http://www.bom.gov.au/fwo/IDQ60801/IDQ60801.94294.axf

JavaScript Object Notation format (JSON) in row-major order
http://www.bom.gov.au/fwo/IDQ60801/IDQ60801.94294.json